sensor_id;sensor_type;location;lat;lon;timestamp;temperature;humidity
19646;DHT22;9971;52.446;13.452;2023-02-28T00:00:51;15.80;99.90
19646;DHT22;9971;52.446;13.452;2023-02-28T00:05:53;15.80;99.90
19646;DHT22;9971;52.446;13.452;2023-02-28T00:10:56;15.80;99.90
19646;DHT22;9971;52.446;13.452;2023-02-28T00:16:00;15.80;99.90
19646;DHT22;9971;52.446;13.452;2023-02-28T00:21:00;15.80;99.90
19646;DHT22;9971;52.446;13.452;2023-02-28T00:26:03;15.80;99.90
19646;DHT22;9971;52.446;13.452;2023-02-28T00:31:05;15.80;99.90
19646;DHT22;9971;52.446;13.452;2023-02-28T00:36:09;15.80;99.90
19646;DHT22;9971;52.446;13.452;2023-02-28T00:41:10;15.80;99.90
19646;DHT22;9971;52.446;13.452;2023-02-28T00:46:13;15.80;99.90
19646;DHT22;9971;52.446;13.452;2023-02-28T00:51:15;15.80;99.90
19646;DHT22;9971;52.446;13.452;2023-02-28T00:56:18;15.80;99.90
19646;DHT22;9971;52.446;13.452;2023-02-28T01:01:20;15.70;99.90
19646;DHT22;9971;52.446;13.452;2023-02-28T01:06:23;15.80;99.90
19646;DHT22;9971;52.446;13.452;2023-02-28T01:11:25;15.70;99.90
19646;DHT22;9971;52.446;13.452;2023-02-28T01:16:27;15.70;99.90
19646;DHT22;9971;52.446;13.452;2023-02-28T01:21:29;15.70;99.90
19646;DHT22;9971;52.446;13.452;2023-02-28T01:26:32;15.70;99.90
19646;DHT22;9971;52.446;13.452;2023-02-28T01:31:34;15.70;99.90
19646;DHT22;9971;52.446;13.452;2023-02-28T01:36:36;15.70;99.90
19646;DHT22;9971;52.446;13.452;2023-02-28T01:41:39;15.70;99.90
19646;DHT22;9971;52.446;13.452;2023-02-28T01:46:41;15.70;99.90
19646;DHT22;9971;52.446;13.452;2023-02-28T01:51:44;15.70;99.90
19646;DHT22;9971;52.446;13.452;2023-02-28T01:56:47;15.70;99.90
19646;DHT22;9971;52.446;13.452;2023-02-28T02:01:48;15.70;99.90
19646;DHT22;9971;52.446;13.452;2023-02-28T02:06:50;15.70;99.90
19646;DHT22;9971;52.446;13.452;2023-02-28T02:11:52;15.70;99.90
19646;DHT22;9971;52.446;13.452;2023-02-28T02:17:00;15.70;99.90
19646;DHT22;9971;52.446;13.452;2023-02-28T02:27:53;15.70;99.90
19646;DHT22;9971;52.446;13.452;2023-02-28T02:39:24;15.70;99.90
19646;DHT22;9971;52.446;13.452;2023-02-28T02:43:33;15.70;99.90
19646;DHT22;9971;52.446;13.452;2023-02-28T02:48:34;15.70;99.90
19646;DHT22;9971;52.446;13.452;2023-02-28T02:53:36;15.70;99.90
19646;DHT22;9971;52.446;13.452;2023-02-28T02:58:38;15.70;99.90
19646;DHT22;9971;52.446;13.452;2023-02-28T03:03:42;15.70;99.90
19646;DHT22;9971;52.446;13.452;2023-02-28T03:08:44;15.70;99.90
19646;DHT22;9971;52.446;13.452;2023-02-28T03:14:09;15.60;99.90
19646;DHT22;9971;52.446;13.452;2023-02-28T03:24:27;15.70;99.90
19646;DHT22;9971;52.446;13.452;2023-02-28T03:29:32;15.70;99.90
19646;DHT22;9971;52.446;13.452;2023-02-28T03:34:33;15.70;99.90
19646;DHT22;9971;52.446;13.452;2023-02-28T03:39:38;15.60;99.90
19646;DHT22;9971;52.446;13.452;2023-02-28T03:44:40;15.60;99.90
19646;DHT22;9971;52.446;13.452;2023-02-28T03:55:07;15.60;99.90
19646;DHT22;9971;52.446;13.452;2023-02-28T04:00:19;15.60;99.90
19646;DHT22;9971;52.446;13.452;2023-02-28T04:05:19;15.60;99.90
19646;DHT22;9971;52.446;13.452;2023-02-28T04:10:22;15.60;99.90
19646;DHT22;9971;52.446;13.452;2023-02-28T04:15:24;15.60;99.90
19646;DHT22;9971;52.446;13.452;2023-02-28T04:20:26;15.60;99.90
19646;DHT22;9971;52.446;13.452;2023-02-28T04:25:29;15.60;99.90
19646;DHT22;9971;52.446;13.452;2023-02-28T04:30:31;15.60;99.90
19646;DHT22;9971;52.446;13.452;2023-02-28T04:35:33;15.50;99.90
19646;DHT22;9971;52.446;13.452;2023-02-28T04:40:36;15.50;99.90
19646;DHT22;9971;52.446;13.452;2023-02-28T04:45:38;15.50;99.90
19646;DHT22;9971;52.446;13.452;2023-02-28T04:50:41;15.50;99.90
19646;DHT22;9971;52.446;13.452;2023-02-28T04:55:43;15.50;99.90
19646;DHT22;9971;52.446;13.452;2023-02-28T05:00:45;15.50;99.90
19646;DHT22;9971;52.446;13.452;2023-02-28T05:05:47;15.50;99.90
19646;DHT22;9971;52.446;13.452;2023-02-28T05:10:50;15.50;99.90
19646;DHT22;9971;52.446;13.452;2023-02-28T05:15:52;15.50;99.90
19646;DHT22;9971;52.446;13.452;2023-02-28T05:20:55;15.50;99.90
19646;DHT22;9971;52.446;13.452;2023-02-28T05:25:57;15.50;99.90
19646;DHT22;9971;52.446;13.452;2023-02-28T05:31:00;15.50;99.90
19646;DHT22;9971;52.446;13.452;2023-02-28T05:36:02;15.50;99.90
19646;DHT22;9971;52.446;13.452;2023-02-28T05:41:05;15.40;99.90
19646;DHT22;9971;52.446;13.452;2023-02-28T05:46:07;15.40;99.90
19646;DHT22;9971;52.446;13.452;2023-02-28T05:51:09;15.50;99.90
19646;DHT22;9971;52.446;13.452;2023-02-28T05:56:11;15.40;99.90
19646;DHT22;9971;52.446;13.452;2023-02-28T06:01:31;15.40;99.90
19646;DHT22;9971;52.446;13.452;2023-02-28T06:06:32;15.50;99.90
19646;DHT22;9971;52.446;13.452;2023-02-28T06:11:34;15.50;99.90
19646;DHT22;9971;52.446;13.452;2023-02-28T06:16:36;15.50;99.90
19646;DHT22;9971;52.446;13.452;2023-02-28T06:21:39;15.50;99.90
19646;DHT22;9971;52.446;13.452;2023-02-28T06:26:41;15.50;99.90
19646;DHT22;9971;52.446;13.452;2023-02-28T06:31:44;15.50;99.90
19646;DHT22;9971;52.446;13.452;2023-02-28T06:36:46;15.50;99.90
19646;DHT22;9971;52.446;13.452;2023-02-28T06:41:49;15.40;99.90
19646;DHT22;9971;52.446;13.452;2023-02-28T06:46:51;15.40;99.90
19646;DHT22;9971;52.446;13.452;2023-02-28T06:51:53;15.50;99.90
19646;DHT22;9971;52.446;13.452;2023-02-28T06:56:57;15.50;99.90
19646;DHT22;9971;52.446;13.452;2023-02-28T07:01:57;15.50;99.90
19646;DHT22;9971;52.446;13.452;2023-02-28T07:07:00;15.40;99.90
19646;DHT22;9971;52.446;13.452;2023-02-28T07:12:03;15.40;99.90
19646;DHT22;9971;52.446;13.452;2023-02-28T07:17:06;15.40;99.90
19646;DHT22;9971;52.446;13.452;2023-02-28T07:22:07;15.50;99.90
19646;DHT22;9971;52.446;13.452;2023-02-28T07:27:09;15.40;99.90
19646;DHT22;9971;52.446;13.452;2023-02-28T07:32:12;15.40;99.90
19646;DHT22;9971;52.446;13.452;2023-02-28T07:37:14;15.50;99.90
19646;DHT22;9971;52.446;13.452;2023-02-28T07:42:16;15.40;99.90
19646;DHT22;9971;52.446;13.452;2023-02-28T07:47:19;15.40;99.90
19646;DHT22;9971;52.446;13.452;2023-02-28T07:52:21;15.40;99.90
19646;DHT22;9971;52.446;13.452;2023-02-28T07:57:23;15.40;99.90
19646;DHT22;9971;52.446;13.452;2023-02-28T08:02:25;15.40;99.90
19646;DHT22;9971;52.446;13.452;2023-02-28T08:07:27;15.40;99.90
19646;DHT22;9971;52.446;13.452;2023-02-28T08:12:30;15.50;99.90
19646;DHT22;9971;52.446;13.452;2023-02-28T08:17:32;15.40;99.90
19646;DHT22;9971;52.446;13.452;2023-02-28T08:22:35;15.50;99.90
19646;DHT22;9971;52.446;13.452;2023-02-28T08:27:37;15.40;99.90
19646;DHT22;9971;52.446;13.452;2023-02-28T08:32:40;15.50;99.90
19646;DHT22;9971;52.446;13.452;2023-02-28T08:37:42;15.50;99.90
19646;DHT22;9971;52.446;13.452;2023-02-28T08:42:45;15.50;99.90
19646;DHT22;9971;52.446;13.452;2023-02-28T08:47:47;15.50;99.90
19646;DHT22;9971;52.446;13.452;2023-02-28T08:52:49;15.50;99.90
19646;DHT22;9971;52.446;13.452;2023-02-28T08:57:52;15.50;99.90
19646;DHT22;9971;52.446;13.452;2023-02-28T09:02:54;15.50;99.90
19646;DHT22;9971;52.446;13.452;2023-02-28T09:07:56;15.50;99.90
19646;DHT22;9971;52.446;13.452;2023-02-28T09:12:59;15.50;99.90
19646;DHT22;9971;52.446;13.452;2023-02-28T09:18:01;15.50;99.90
19646;DHT22;9971;52.446;13.452;2023-02-28T09:23:04;15.50;99.90
19646;DHT22;9971;52.446;13.452;2023-02-28T09:28:06;15.60;99.90
19646;DHT22;9971;52.446;13.452;2023-02-28T09:33:09;15.50;99.90
19646;DHT22;9971;52.446;13.452;2023-02-28T09:38:11;15.60;99.90
19646;DHT22;9971;52.446;13.452;2023-02-28T09:43:14;15.60;99.90
19646;DHT22;9971;52.446;13.452;2023-02-28T09:48:17;15.60;99.90
19646;DHT22;9971;52.446;13.452;2023-02-28T09:53:23;15.60;99.90
19646;DHT22;9971;52.446;13.452;2023-02-28T09:58:28;15.60;99.90
19646;DHT22;9971;52.446;13.452;2023-02-28T10:03:31;15.60;99.90
19646;DHT22;9971;52.446;13.452;2023-02-28T10:08:52;15.60;99.90
19646;DHT22;9971;52.446;13.452;2023-02-28T10:13:57;15.70;99.90
19646;DHT22;9971;52.446;13.452;2023-02-28T10:19:39;15.70;99.90
19646;DHT22;9971;52.446;13.452;2023-02-28T10:24:27;15.70;99.90
19646;DHT22;9971;52.446;13.452;2023-02-28T10:29:26;15.70;99.90
19646;DHT22;9971;52.446;13.452;2023-02-28T10:34:27;15.70;99.90
19646;DHT22;9971;52.446;13.452;2023-02-28T10:39:35;15.70;99.90
19646;DHT22;9971;52.446;13.452;2023-02-28T10:44:36;15.70;99.90
19646;DHT22;9971;52.446;13.452;2023-02-28T10:49:38;15.80;99.90
19646;DHT22;9971;52.446;13.452;2023-02-28T10:54:40;15.80;99.90
19646;DHT22;9971;52.446;13.452;2023-02-28T10:59:43;15.80;99.90
19646;DHT22;9971;52.446;13.452;2023-02-28T11:04:45;15.80;99.90
19646;DHT22;9971;52.446;13.452;2023-02-28T11:09:48;15.80;99.90
19646;DHT22;9971;52.446;13.452;2023-02-28T11:14:51;14.00;69.00
19646;DHT22;9971;52.446;13.452;2023-02-28T11:19:53;12.00;74.10
19646;DHT22;9971;52.446;13.452;2023-02-28T11:24:55;11.10;75.70
19646;DHT22;9971;52.446;13.452;2023-02-28T11:29:57;10.80;79.60
19646;DHT22;9971;52.446;13.452;2023-02-28T11:40:12;10.40;76.50
19646;DHT22;9971;52.446;13.452;2023-02-28T11:45:19;10.50;80.60
19646;DHT22;9971;52.446;13.452;2023-02-28T11:50:39;10.60;83.20
19646;DHT22;9971;52.446;13.452;2023-02-28T11:55:42;10.80;78.70
19646;DHT22;9971;52.446;13.452;2023-02-28T12:01:03;10.80;78.20
19646;DHT22;9971;52.446;13.452;2023-02-28T12:06:28;10.80;76.50
19646;DHT22;9971;52.446;13.452;2023-02-28T12:11:34;10.90;76.90
19646;DHT22;9971;52.446;13.452;2023-02-28T12:16:53;11.30;82.20
19646;DHT22;9971;52.446;13.452;2023-02-28T12:22:09;11.40;74.00
19646;DHT22;9971;52.446;13.452;2023-02-28T12:27:11;11.30;73.90
19646;DHT22;9971;52.446;13.452;2023-02-28T12:32:21;11.40;74.60
19646;DHT22;9971;52.446;13.452;2023-02-28T12:37:28;11.40;76.30
19646;DHT22;9971;52.446;13.452;2023-02-28T12:42:30;11.50;70.30
19646;DHT22;9971;52.446;13.452;2023-02-28T12:47:32;11.80;73.30
19646;DHT22;9971;52.446;13.452;2023-02-28T12:52:37;11.90;69.70
19646;DHT22;9971;52.446;13.452;2023-02-28T12:57:42;12.10;71.90
19646;DHT22;9971;52.446;13.452;2023-02-28T13:02:52;12.30;70.60
19646;DHT22;9971;52.446;13.452;2023-02-28T13:13:02;12.50;68.70
19646;DHT22;9971;52.446;13.452;2023-02-28T13:18:04;12.60;70.20
19646;DHT22;9971;52.446;13.452;2023-02-28T13:23:14;12.60;68.20
19646;DHT22;9971;52.446;13.452;2023-02-28T13:28:09;12.80;66.70
19646;DHT22;9971;52.446;13.452;2023-02-28T13:33:33;12.70;68.60
19646;DHT22;9971;52.446;13.452;2023-02-28T13:38:36;12.70;66.60
19646;DHT22;9971;52.446;13.452;2023-02-28T13:48:50;13.20;65.50
19646;DHT22;9971;52.446;13.452;2023-02-28T13:53:59;13.10;63.80
19646;DHT22;9971;52.446;13.452;2023-02-28T13:59:14;13.00;64.30
19646;DHT22;9971;52.446;13.452;2023-02-28T14:04:23;13.10;65.50
19646;DHT22;9971;52.446;13.452;2023-02-28T14:09:41;13.10;64.70
19646;DHT22;9971;52.446;13.452;2023-02-28T14:14:55;13.30;64.50
19646;DHT22;9971;52.446;13.452;2023-02-28T14:19:56;13.00;64.70
19646;DHT22;9971;52.446;13.452;2023-02-28T14:25:08;13.00;63.60
19646;DHT22;9971;52.446;13.452;2023-02-28T14:40:56;13.00;65.20
19646;DHT22;9971;52.446;13.452;2023-02-28T14:45:58;13.10;64.30
19646;DHT22;9971;52.446;13.452;2023-02-28T14:50:59;12.90;62.50
19646;DHT22;9971;52.446;13.452;2023-02-28T15:21:03;12.60;62.20
19646;DHT22;9971;52.446;13.452;2023-02-28T15:26:04;14.00;72.90
19646;DHT22;9971;52.446;13.452;2023-02-28T15:31:17;13.50;63.40
19646;DHT22;9971;52.446;13.452;2023-02-28T16:01:25;13.00;65.50
19646;DHT22;9971;52.446;13.452;2023-02-28T16:06:35;14.30;73.20
19646;DHT22;9971;52.446;13.452;2023-02-28T16:11:40;12.50;64.90
19646;DHT22;9971;52.446;13.452;2023-02-28T16:16:43;11.10;67.10
19646;DHT22;9971;52.446;13.452;2023-02-28T16:21:44;10.10;70.60
19646;DHT22;9971;52.446;13.452;2023-02-28T16:26:46;9.70;71.30
19646;DHT22;9971;52.446;13.452;2023-02-28T16:31:48;9.30;71.90
19646;DHT22;9971;52.446;13.452;2023-02-28T16:36:50;9.00;73.80
19646;DHT22;9971;52.446;13.452;2023-02-28T16:41:52;8.70;74.50
19646;DHT22;9971;52.446;13.452;2023-02-28T16:46:54;8.50;75.80
19646;DHT22;9971;52.446;13.452;2023-02-28T16:51:56;8.20;76.50
19646;DHT22;9971;52.446;13.452;2023-02-28T16:56:59;8.00;78.40
19646;DHT22;9971;52.446;13.452;2023-02-28T17:02:01;7.80;79.00
19646;DHT22;9971;52.446;13.452;2023-02-28T17:07:03;7.60;79.40
19646;DHT22;9971;52.446;13.452;2023-02-28T17:12:06;7.40;81.30
19646;DHT22;9971;52.446;13.452;2023-02-28T17:17:09;7.20;82.10
19646;DHT22;9971;52.446;13.452;2023-02-28T17:22:10;7.00;84.20
19646;DHT22;9971;52.446;13.452;2023-02-28T17:27:12;6.80;85.20
19646;DHT22;9971;52.446;13.452;2023-02-28T17:32:15;6.70;86.10
19646;DHT22;9971;52.446;13.452;2023-02-28T17:37:17;6.50;88.00
19646;DHT22;9971;52.446;13.452;2023-02-28T17:42:20;6.40;90.00
19646;DHT22;9971;52.446;13.452;2023-02-28T17:47:22;6.20;89.30
19646;DHT22;9971;52.446;13.452;2023-02-28T17:52:25;6.10;90.80
19646;DHT22;9971;52.446;13.452;2023-02-28T17:57:28;5.90;91.50
19646;DHT22;9971;52.446;13.452;2023-02-28T18:02:31;5.80;91.70
19646;DHT22;9971;52.446;13.452;2023-02-28T18:07:34;5.70;92.40
19646;DHT22;9971;52.446;13.452;2023-02-28T18:12:36;5.60;92.60
19646;DHT22;9971;52.446;13.452;2023-02-28T18:17:38;5.50;92.80
19646;DHT22;9971;52.446;13.452;2023-02-28T18:22:40;5.40;93.40
19646;DHT22;9971;52.446;13.452;2023-02-28T18:27:43;5.30;94.00
19646;DHT22;9971;52.446;13.452;2023-02-28T18:32:45;5.20;94.50
19646;DHT22;9971;52.446;13.452;2023-02-28T18:37:48;5.10;96.00
19646;DHT22;9971;52.446;13.452;2023-02-28T18:42:50;5.00;96.50
19646;DHT22;9971;52.446;13.452;2023-02-28T18:47:53;4.90;96.80
19646;DHT22;9971;52.446;13.452;2023-02-28T18:52:55;4.80;97.10
19646;DHT22;9971;52.446;13.452;2023-02-28T18:57:58;4.70;97.50
19646;DHT22;9971;52.446;13.452;2023-02-28T19:03:01;4.60;98.30
19646;DHT22;9971;52.446;13.452;2023-02-28T19:08:03;4.50;98.40
19646;DHT22;9971;52.446;13.452;2023-02-28T19:13:05;4.40;98.00
19646;DHT22;9971;52.446;13.452;2023-02-28T19:18:08;4.40;99.10
19646;DHT22;9971;52.446;13.452;2023-02-28T19:23:11;4.40;99.00
19646;DHT22;9971;52.446;13.452;2023-02-28T19:28:13;4.30;99.90
19646;DHT22;9971;52.446;13.452;2023-02-28T19:33:15;4.20;99.90
19646;DHT22;9971;52.446;13.452;2023-02-28T19:38:17;4.10;99.90
19646;DHT22;9971;52.446;13.452;2023-02-28T19:43:20;4.10;99.90
19646;DHT22;9971;52.446;13.452;2023-02-28T19:48:23;4.00;99.90
19646;DHT22;9971;52.446;13.452;2023-02-28T19:53:24;3.90;99.90
19646;DHT22;9971;52.446;13.452;2023-02-28T19:58:26;3.80;99.90
19646;DHT22;9971;52.446;13.452;2023-02-28T20:03:29;3.60;99.90
19646;DHT22;9971;52.446;13.452;2023-02-28T20:08:31;3.60;99.90
19646;DHT22;9971;52.446;13.452;2023-02-28T20:13:34;3.50;99.90
19646;DHT22;9971;52.446;13.452;2023-02-28T20:18:36;3.50;99.90
19646;DHT22;9971;52.446;13.452;2023-02-28T20:23:39;3.50;99.90
19646;DHT22;9971;52.446;13.452;2023-02-28T20:28:41;3.40;99.90
19646;DHT22;9971;52.446;13.452;2023-02-28T20:33:43;3.40;99.90
19646;DHT22;9971;52.446;13.452;2023-02-28T20:38:45;3.40;99.90
19646;DHT22;9971;52.446;13.452;2023-02-28T20:43:51;3.30;99.90
19646;DHT22;9971;52.446;13.452;2023-02-28T20:48:49;3.30;99.90
19646;DHT22;9971;52.446;13.452;2023-02-28T20:53:51;3.20;99.90
19646;DHT22;9971;52.446;13.452;2023-02-28T20:58:54;2.90;99.90
19646;DHT22;9971;52.446;13.452;2023-02-28T21:03:57;2.70;99.90
19646;DHT22;9971;52.446;13.452;2023-02-28T21:08:59;2.80;99.90
19646;DHT22;9971;52.446;13.452;2023-02-28T21:14:02;2.90;99.90
19646;DHT22;9971;52.446;13.452;2023-02-28T21:19:03;3.00;99.90
19646;DHT22;9971;52.446;13.452;2023-02-28T21:24:07;3.00;99.90
19646;DHT22;9971;52.446;13.452;2023-02-28T21:29:09;3.00;99.90
19646;DHT22;9971;52.446;13.452;2023-02-28T21:34:11;3.00;99.90
19646;DHT22;9971;52.446;13.452;2023-02-28T21:39:16;2.90;99.90
19646;DHT22;9971;52.446;13.452;2023-02-28T21:44:17;2.80;99.90
19646;DHT22;9971;52.446;13.452;2023-02-28T21:49:19;2.70;99.90
19646;DHT22;9971;52.446;13.452;2023-02-28T21:54:23;2.70;99.90
19646;DHT22;9971;52.446;13.452;2023-02-28T21:59:25;2.70;99.90
19646;DHT22;9971;52.446;13.452;2023-02-28T22:04:28;2.60;99.90
19646;DHT22;9971;52.446;13.452;2023-02-28T22:09:31;2.60;99.90
19646;DHT22;9971;52.446;13.452;2023-02-28T22:14:34;2.50;99.90
19646;DHT22;9971;52.446;13.452;2023-02-28T22:19:37;2.50;99.90
19646;DHT22;9971;52.446;13.452;2023-02-28T22:24:40;2.50;99.90
19646;DHT22;9971;52.446;13.452;2023-02-28T22:29:43;2.40;99.90
19646;DHT22;9971;52.446;13.452;2023-02-28T22:34:51;2.40;99.90
19646;DHT22;9971;52.446;13.452;2023-02-28T22:39:51;2.30;99.90
19646;DHT22;9971;52.446;13.452;2023-02-28T22:44:54;2.30;99.90
19646;DHT22;9971;52.446;13.452;2023-02-28T22:49:56;2.30;99.90
19646;DHT22;9971;52.446;13.452;2023-02-28T22:54:59;2.20;99.90
19646;DHT22;9971;52.446;13.452;2023-02-28T23:00:02;2.00;99.90
19646;DHT22;9971;52.446;13.452;2023-02-28T23:05:04;1.90;99.90
19646;DHT22;9971;52.446;13.452;2023-02-28T23:10:08;2.00;99.90
19646;DHT22;9971;52.446;13.452;2023-02-28T23:15:09;2.30;99.90
19646;DHT22;9971;52.446;13.452;2023-02-28T23:20:11;3.20;99.90
19646;DHT22;9971;52.446;13.452;2023-02-28T23:25:13;4.10;99.90
19646;DHT22;9971;52.446;13.452;2023-02-28T23:30:16;5.00;99.90
19646;DHT22;9971;52.446;13.452;2023-02-28T23:35:18;5.70;99.90
19646;DHT22;9971;52.446;13.452;2023-02-28T23:40:20;6.40;99.90
19646;DHT22;9971;52.446;13.452;2023-02-28T23:45:23;7.00;99.90
19646;DHT22;9971;52.446;13.452;2023-02-28T23:50:25;7.50;99.90
19646;DHT22;9971;52.446;13.452;2023-02-28T23:55:27;8.00;99.90
